sensor_id;sensor_type;location;lat;lon;timestamp;P1;durP1;ratioP1;P2;durP2;ratioP2
56790;SDS011;42658;46.072;14.474;2022-07-11T00:01:34;1.65;;;1.00;;
56790;SDS011;42658;46.072;14.474;2022-07-11T00:04:01;2.97;;;0.88;;
56790;SDS011;42658;46.072;14.474;2022-07-11T00:06:28;0.95;;;0.63;;
56790;SDS011;42658;46.072;14.474;2022-07-11T00:08:55;1.77;;;0.90;;
56790;SDS011;42658;46.072;14.474;2022-07-11T00:11:22;1.05;;;0.80;;
56790;SDS011;42658;46.072;14.474;2022-07-11T00:13:49;1.23;;;0.60;;
56790;SDS011;42658;46.072;14.474;2022-07-11T00:16:16;1.42;;;0.75;;
56790;SDS011;42658;46.072;14.474;2022-07-11T00:18:44;0.75;;;0.65;;
56790;SDS011;42658;46.072;14.474;2022-07-11T00:21:11;1.25;;;0.75;;
56790;SDS011;42658;46.072;14.474;2022-07-11T00:23:38;1.10;;;0.75;;
56790;SDS011;42658;46.072;14.474;2022-07-11T00:26:05;2.00;;;0.80;;
56790;SDS011;42658;46.072;14.474;2022-07-11T00:28:32;1.17;;;0.73;;
56790;SDS011;42658;46.072;14.474;2022-07-11T00:30:59;1.25;;;0.80;;
56790;SDS011;42658;46.072;14.474;2022-07-11T00:33:27;1.00;;;0.80;;
56790;SDS011;42658;46.072;14.474;2022-07-11T00:35:53;1.20;;;0.75;;
56790;SDS011;42658;46.072;14.474;2022-07-11T00:38:20;1.05;;;0.73;;
56790;SDS011;42658;46.072;14.474;2022-07-11T00:40:47;1.30;;;0.98;;
56790;SDS011;42658;46.072;14.474;2022-07-11T00:43:14;1.75;;;0.85;;
56790;SDS011;42658;46.072;14.474;2022-07-11T00:45:48;2.17;;;0.70;;
56790;SDS011;42658;46.072;14.474;2022-07-11T00:48:15;1.10;;;0.63;;
56790;SDS011;42658;46.072;14.474;2022-07-11T00:50:41;3.30;;;0.90;;
56790;SDS011;42658;46.072;14.474;2022-07-11T00:53:09;1.42;;;0.63;;
56790;SDS011;42658;46.072;14.474;2022-07-11T00:55:35;1.25;;;0.70;;
56790;SDS011;42658;46.072;14.474;2022-07-11T00:58:02;0.95;;;0.85;;
56790;SDS011;42658;46.072;14.474;2022-07-11T01:00:30;1.00;;;0.70;;
56790;SDS011;42658;46.072;14.474;2022-07-11T01:02:57;1.40;;;0.68;;
56790;SDS011;42658;46.072;14.474;2022-07-11T01:05:24;1.25;;;0.70;;
56790;SDS011;42658;46.072;14.474;2022-07-11T01:07:51;1.02;;;0.60;;
56790;SDS011;42658;46.072;14.474;2022-07-11T01:10:18;0.57;;;0.50;;
56790;SDS011;42658;46.072;14.474;2022-07-11T01:12:45;1.35;;;0.80;;
56790;SDS011;42658;46.072;14.474;2022-07-11T01:15:13;1.75;;;0.70;;
56790;SDS011;42658;46.072;14.474;2022-07-11T01:17:40;1.35;;;0.70;;
56790;SDS011;42658;46.072;14.474;2022-07-11T01:20:07;0.80;;;0.43;;
56790;SDS011;42658;46.072;14.474;2022-07-11T01:22:36;1.52;;;0.60;;
56790;SDS011;42658;46.072;14.474;2022-07-11T01:25:06;1.23;;;0.60;;
56790;SDS011;42658;46.072;14.474;2022-07-11T01:27:33;0.80;;;0.50;;
56790;SDS011;42658;46.072;14.474;2022-07-11T01:30:02;1.63;;;0.60;;
56790;SDS011;42658;46.072;14.474;2022-07-11T01:32:31;1.30;;;0.80;;
56790;SDS011;42658;46.072;14.474;2022-07-11T01:34:58;1.10;;;0.60;;
56790;SDS011;42658;46.072;14.474;2022-07-11T01:37:24;1.88;;;0.80;;
56790;SDS011;42658;46.072;14.474;2022-07-11T01:39:51;1.13;;;0.60;;
56790;SDS011;42658;46.072;14.474;2022-07-11T01:42:18;1.80;;;0.75;;
56790;SDS011;42658;46.072;14.474;2022-07-11T01:44:45;0.35;;;0.35;;
56790;SDS011;42658;46.072;14.474;2022-07-11T01:47:12;1.27;;;0.60;;
56790;SDS011;42658;46.072;14.474;2022-07-11T01:49:39;0.85;;;0.63;;
56790;SDS011;42658;46.072;14.474;2022-07-11T01:52:06;1.40;;;0.70;;
56790;SDS011;42658;46.072;14.474;2022-07-11T01:54:33;0.98;;;0.70;;
56790;SDS011;42658;46.072;14.474;2022-07-11T01:57:00;0.90;;;0.50;;
56790;SDS011;42658;46.072;14.474;2022-07-11T01:59:27;0.60;;;0.50;;
56790;SDS011;42658;46.072;14.474;2022-07-11T02:01:54;0.95;;;0.57;;
56790;SDS011;42658;46.072;14.474;2022-07-11T02:04:21;1.55;;;0.63;;
56790;SDS011;42658;46.072;14.474;2022-07-11T02:06:48;1.83;;;0.82;;
56790;SDS011;42658;46.072;14.474;2022-07-11T02:09:14;1.08;;;0.60;;
56790;SDS011;42658;46.072;14.474;2022-07-11T02:24:00;0.88;;;0.60;;
56790;SDS011;42658;46.072;14.474;2022-07-11T02:26:27;1.27;;;0.50;;
56790;SDS011;42658;46.072;14.474;2022-07-11T02:28:54;0.77;;;0.60;;
56790;SDS011;42658;46.072;14.474;2022-07-11T02:31:21;1.42;;;0.60;;
56790;SDS011;42658;46.072;14.474;2022-07-11T02:33:48;1.13;;;0.50;;
56790;SDS011;42658;46.072;14.474;2022-07-11T02:36:14;1.20;;;0.50;;
56790;SDS011;42658;46.072;14.474;2022-07-11T02:38:42;1.73;;;0.60;;
56790;SDS011;42658;46.072;14.474;2022-07-11T02:41:09;1.20;;;0.60;;
56790;SDS011;42658;46.072;14.474;2022-07-11T02:43:36;0.45;;;0.45;;
56790;SDS011;42658;46.072;14.474;2022-07-11T02:46:03;1.42;;;0.57;;
56790;SDS011;42658;46.072;14.474;2022-07-11T02:48:31;1.98;;;0.52;;
56790;SDS011;42658;46.072;14.474;2022-07-11T02:50:58;2.15;;;0.47;;
56790;SDS011;42658;46.072;14.474;2022-07-11T02:53:25;1.77;;;0.65;;
56790;SDS011;42658;46.072;14.474;2022-07-11T02:55:52;1.55;;;0.60;;
56790;SDS011;42658;46.072;14.474;2022-07-11T02:58:19;0.95;;;0.55;;
56790;SDS011;42658;46.072;14.474;2022-07-11T03:00:45;1.55;;;0.55;;
56790;SDS011;42658;46.072;14.474;2022-07-11T03:03:12;2.28;;;0.52;;
56790;SDS011;42658;46.072;14.474;2022-07-11T03:05:39;1.40;;;0.50;;
56790;SDS011;42658;46.072;14.474;2022-07-11T03:08:06;1.42;;;0.40;;
56790;SDS011;42658;46.072;14.474;2022-07-11T03:10:34;1.42;;;0.57;;
56790;SDS011;42658;46.072;14.474;2022-07-11T03:13:01;1.83;;;0.63;;
56790;SDS011;42658;46.072;14.474;2022-07-11T03:15:28;1.88;;;0.70;;
56790;SDS011;42658;46.072;14.474;2022-07-11T03:17:55;0.88;;;0.45;;
56790;SDS011;42658;46.072;14.474;2022-07-11T03:20:21;1.55;;;0.50;;
56790;SDS011;42658;46.072;14.474;2022-07-11T03:22:48;0.93;;;0.50;;
56790;SDS011;42658;46.072;14.474;2022-07-11T03:25:16;0.75;;;0.60;;
56790;SDS011;42658;46.072;14.474;2022-07-11T03:27:43;1.38;;;0.60;;
56790;SDS011;42658;46.072;14.474;2022-07-11T03:30:10;2.83;;;0.70;;
56790;SDS011;42658;46.072;14.474;2022-07-11T03:32:37;0.55;;;0.43;;
56790;SDS011;42658;46.072;14.474;2022-07-11T03:35:04;1.02;;;0.50;;
56790;SDS011;42658;46.072;14.474;2022-07-11T03:37:50;1.17;;;0.55;;
56790;SDS011;42658;46.072;14.474;2022-07-11T03:40:17;2.95;;;0.77;;
56790;SDS011;42658;46.072;14.474;2022-07-11T03:42:44;1.52;;;0.50;;
56790;SDS011;42658;46.072;14.474;2022-07-11T03:45:11;1.67;;;0.52;;
56790;SDS011;42658;46.072;14.474;2022-07-11T03:47:38;1.08;;;0.57;;
56790;SDS011;42658;46.072;14.474;2022-07-11T03:50:05;2.70;;;0.70;;
56790;SDS011;42658;46.072;14.474;2022-07-11T03:52:32;2.58;;;0.60;;
56790;SDS011;42658;46.072;14.474;2022-07-11T03:54:59;1.80;;;0.60;;
56790;SDS011;42658;46.072;14.474;2022-07-11T03:57:26;1.92;;;0.80;;
56790;SDS011;42658;46.072;14.474;2022-07-11T03:59:53;2.20;;;0.70;;
56790;SDS011;42658;46.072;14.474;2022-07-11T04:02:20;2.35;;;0.60;;
56790;SDS011;42658;46.072;14.474;2022-07-11T04:04:47;2.25;;;0.65;;
56790;SDS011;42658;46.072;14.474;2022-07-11T04:07:14;0.75;;;0.60;;
56790;SDS011;42658;46.072;14.474;2022-07-11T04:09:40;2.28;;;0.93;;
56790;SDS011;42658;46.072;14.474;2022-07-11T04:12:07;2.75;;;0.80;;
56790;SDS011;42658;46.072;14.474;2022-07-11T04:14:34;1.67;;;0.85;;
56790;SDS011;42658;46.072;14.474;2022-07-11T04:17:02;1.88;;;0.80;;
56790;SDS011;42658;46.072;14.474;2022-07-11T04:19:29;2.47;;;0.85;;
56790;SDS011;42658;46.072;14.474;2022-07-11T04:21:56;1.58;;;0.77;;
56790;SDS011;42658;46.072;14.474;2022-07-11T04:24:24;0.90;;;0.60;;
56790;SDS011;42658;46.072;14.474;2022-07-11T04:26:51;1.33;;;0.70;;
56790;SDS011;42658;46.072;14.474;2022-07-11T04:29:18;1.73;;;0.70;;
56790;SDS011;42658;46.072;14.474;2022-07-11T04:31:44;2.05;;;0.70;;
56790;SDS011;42658;46.072;14.474;2022-07-11T04:34:11;1.27;;;0.63;;
56790;SDS011;42658;46.072;14.474;2022-07-11T04:36:40;1.73;;;0.77;;
56790;SDS011;42658;46.072;14.474;2022-07-11T04:39:06;2.20;;;0.80;;
56790;SDS011;42658;46.072;14.474;2022-07-11T04:41:33;2.40;;;0.88;;
56790;SDS011;42658;46.072;14.474;2022-07-11T04:44:00;1.10;;;0.55;;
56790;SDS011;42658;46.072;14.474;2022-07-11T04:46:27;1.63;;;0.68;;
56790;SDS011;42658;46.072;14.474;2022-07-11T04:48:55;3.83;;;0.93;;
56790;SDS011;42658;46.072;14.474;2022-07-11T04:51:22;0.80;;;0.68;;
56790;SDS011;42658;46.072;14.474;2022-07-11T04:53:50;3.10;;;0.90;;
56790;SDS011;42658;46.072;14.474;2022-07-11T04:56:17;2.05;;;1.10;;
56790;SDS011;42658;46.072;14.474;2022-07-11T04:58:44;3.80;;;1.40;;
56790;SDS011;42658;46.072;14.474;2022-07-11T05:01:11;2.67;;;1.48;;
56790;SDS011;42658;46.072;14.474;2022-07-11T05:03:38;2.92;;;1.10;;
56790;SDS011;42658;46.072;14.474;2022-07-11T05:06:05;3.35;;;1.23;;
56790;SDS011;42658;46.072;14.474;2022-07-11T05:08:33;1.88;;;1.10;;
56790;SDS011;42658;46.072;14.474;2022-07-11T05:11:03;3.35;;;1.10;;
56790;SDS011;42658;46.072;14.474;2022-07-11T05:13:30;3.90;;;1.08;;
56790;SDS011;42658;46.072;14.474;2022-07-11T05:15:58;2.08;;;1.08;;
56790;SDS011;42658;46.072;14.474;2022-07-11T05:18:24;1.50;;;0.77;;
56790;SDS011;42658;46.072;14.474;2022-07-11T05:20:52;3.63;;;1.10;;
56790;SDS011;42658;46.072;14.474;2022-07-11T05:23:18;5.60;;;1.20;;
56790;SDS011;42658;46.072;14.474;2022-07-11T05:25:46;4.15;;;1.27;;
56790;SDS011;42658;46.072;14.474;2022-07-11T05:28:13;2.97;;;0.75;;
56790;SDS011;42658;46.072;14.474;2022-07-11T05:30:40;2.45;;;0.90;;
56790;SDS011;42658;46.072;14.474;2022-07-11T05:33:07;3.83;;;1.40;;
56790;SDS011;42658;46.072;14.474;2022-07-11T05:35:34;4.65;;;0.90;;
56790;SDS011;42658;46.072;14.474;2022-07-11T05:38:01;1.38;;;0.82;;
56790;SDS011;42658;46.072;14.474;2022-07-11T05:40:27;2.00;;;0.70;;
56790;SDS011;42658;46.072;14.474;2022-07-11T05:42:54;1.35;;;0.70;;
56790;SDS011;42658;46.072;14.474;2022-07-11T05:45:21;2.35;;;1.00;;
56790;SDS011;42658;46.072;14.474;2022-07-11T05:47:48;3.03;;;0.93;;
56790;SDS011;42658;46.072;14.474;2022-07-11T05:50:15;1.30;;;0.63;;
56790;SDS011;42658;46.072;14.474;2022-07-11T05:52:42;2.08;;;0.60;;
56790;SDS011;42658;46.072;14.474;2022-07-11T05:55:09;2.00;;;0.75;;
56790;SDS011;42658;46.072;14.474;2022-07-11T05:57:43;2.63;;;0.90;;
56790;SDS011;42658;46.072;14.474;2022-07-11T06:00:10;4.40;;;0.60;;
56790;SDS011;42658;46.072;14.474;2022-07-11T06:02:38;1.58;;;0.80;;
56790;SDS011;42658;46.072;14.474;2022-07-11T06:05:05;1.17;;;0.60;;
56790;SDS011;42658;46.072;14.474;2022-07-11T06:07:32;1.13;;;0.70;;
56790;SDS011;42658;46.072;14.474;2022-07-11T06:10:25;1.92;;;0.70;;
56790;SDS011;42658;46.072;14.474;2022-07-11T06:12:52;1.92;;;0.70;;
56790;SDS011;42658;46.072;14.474;2022-07-11T06:15:19;1.23;;;0.60;;
56790;SDS011;42658;46.072;14.474;2022-07-11T06:17:46;0.93;;;0.50;;
56790;SDS011;42658;46.072;14.474;2022-07-11T06:20:13;1.15;;;0.57;;
56790;SDS011;42658;46.072;14.474;2022-07-11T06:22:39;3.15;;;0.63;;
56790;SDS011;42658;46.072;14.474;2022-07-11T06:25:06;1.20;;;0.77;;
56790;SDS011;42658;46.072;14.474;2022-07-11T06:27:38;1.48;;;0.80;;
56790;SDS011;42658;46.072;14.474;2022-07-11T06:30:05;2.55;;;0.70;;
56790;SDS011;42658;46.072;14.474;2022-07-11T06:32:32;0.90;;;0.40;;
56790;SDS011;42658;46.072;14.474;2022-07-11T06:34:59;0.98;;;0.50;;
56790;SDS011;42658;46.072;14.474;2022-07-11T06:37:26;0.88;;;0.45;;
56790;SDS011;42658;46.072;14.474;2022-07-11T06:39:53;1.30;;;0.70;;
56790;SDS011;42658;46.072;14.474;2022-07-11T06:42:19;1.35;;;0.60;;
56790;SDS011;42658;46.072;14.474;2022-07-11T06:44:53;1.25;;;0.60;;
56790;SDS011;42658;46.072;14.474;2022-07-11T06:47:21;1.48;;;0.57;;
56790;SDS011;42658;46.072;14.474;2022-07-11T06:49:47;0.75;;;0.50;;
56790;SDS011;42658;46.072;14.474;2022-07-11T06:52:14;0.93;;;0.50;;
56790;SDS011;42658;46.072;14.474;2022-07-11T06:54:41;1.90;;;0.70;;
56790;SDS011;42658;46.072;14.474;2022-07-11T06:57:08;1.05;;;0.50;;
56790;SDS011;42658;46.072;14.474;2022-07-11T06:59:38;0.70;;;0.50;;
56790;SDS011;42658;46.072;14.474;2022-07-11T07:02:05;1.00;;;0.60;;
56790;SDS011;42658;46.072;14.474;2022-07-11T07:04:32;2.17;;;0.60;;
56790;SDS011;42658;46.072;14.474;2022-07-11T07:06:58;0.73;;;0.30;;
56790;SDS011;42658;46.072;14.474;2022-07-11T07:09:26;1.17;;;0.40;;
56790;SDS011;42658;46.072;14.474;2022-07-11T07:11:53;0.90;;;0.60;;
56790;SDS011;42658;46.072;14.474;2022-07-11T07:14:21;1.30;;;0.60;;
56790;SDS011;42658;46.072;14.474;2022-07-11T07:16:48;0.60;;;0.50;;
56790;SDS011;42658;46.072;14.474;2022-07-11T07:19:15;0.98;;;0.70;;
56790;SDS011;42658;46.072;14.474;2022-07-11T07:21:42;1.25;;;0.55;;
56790;SDS011;42658;46.072;14.474;2022-07-11T07:24:10;1.35;;;0.65;;
56790;SDS011;42658;46.072;14.474;2022-07-11T07:26:43;0.95;;;0.40;;
56790;SDS011;42658;46.072;14.474;2022-07-11T07:29:10;1.40;;;0.50;;
56790;SDS011;42658;46.072;14.474;2022-07-11T07:31:36;0.80;;;0.50;;
56790;SDS011;42658;46.072;14.474;2022-07-11T07:34:03;2.00;;;0.47;;
56790;SDS011;42658;46.072;14.474;2022-07-11T07:36:31;1.30;;;0.40;;
56790;SDS011;42658;46.072;14.474;2022-07-11T07:38:58;0.70;;;0.32;;
56790;SDS011;42658;46.072;14.474;2022-07-11T07:41:25;1.40;;;0.50;;
56790;SDS011;42658;46.072;14.474;2022-07-11T07:43:52;1.25;;;0.50;;
56790;SDS011;42658;46.072;14.474;2022-07-11T07:46:19;1.25;;;0.40;;
56790;SDS011;42658;46.072;14.474;2022-07-11T07:48:47;1.40;;;0.45;;
56790;SDS011;42658;46.072;14.474;2022-07-11T07:51:14;0.80;;;0.40;;
56790;SDS011;42658;46.072;14.474;2022-07-11T07:53:41;1.02;;;0.30;;
56790;SDS011;42658;46.072;14.474;2022-07-11T07:56:07;1.13;;;0.50;;
56790;SDS011;42658;46.072;14.474;2022-07-11T07:58:34;2.38;;;0.70;;
56790;SDS011;42658;46.072;14.474;2022-07-11T08:01:01;0.50;;;0.30;;
56790;SDS011;42658;46.072;14.474;2022-07-11T08:03:47;0.85;;;0.60;;
56790;SDS011;42658;46.072;14.474;2022-07-11T08:06:14;1.45;;;0.50;;
56790;SDS011;42658;46.072;14.474;2022-07-11T08:08:41;1.40;;;0.50;;
56790;SDS011;42658;46.072;14.474;2022-07-11T08:11:08;1.92;;;0.50;;
56790;SDS011;42658;46.072;14.474;2022-07-11T08:13:55;0.82;;;0.38;;
56790;SDS011;42658;46.072;14.474;2022-07-11T08:16:22;0.60;;;0.40;;
56790;SDS011;42658;46.072;14.474;2022-07-11T08:18:49;0.77;;;0.45;;
56790;SDS011;42658;46.072;14.474;2022-07-11T08:21:16;0.50;;;0.30;;
56790;SDS011;42658;46.072;14.474;2022-07-11T08:23:43;5.60;;;2.55;;
56790;SDS011;42658;46.072;14.474;2022-07-11T08:26:10;4.68;;;1.80;;
56790;SDS011;42658;46.072;14.474;2022-07-11T08:28:37;3.72;;;1.70;;
56790;SDS011;42658;46.072;14.474;2022-07-11T08:31:04;4.22;;;2.20;;
56790;SDS011;42658;46.072;14.474;2022-07-11T08:33:31;3.30;;;1.58;;
56790;SDS011;42658;46.072;14.474;2022-07-11T08:35:58;3.13;;;1.00;;
56790;SDS011;42658;46.072;14.474;2022-07-11T08:38:25;0.75;;;0.63;;
56790;SDS011;42658;46.072;14.474;2022-07-11T08:40:51;1.52;;;0.82;;
56790;SDS011;42658;46.072;14.474;2022-07-11T08:43:22;1.52;;;0.60;;
56790;SDS011;42658;46.072;14.474;2022-07-11T08:45:50;1.25;;;0.85;;
56790;SDS011;42658;46.072;14.474;2022-07-11T08:48:16;2.58;;;1.00;;
56790;SDS011;42658;46.072;14.474;2022-07-11T08:50:45;1.10;;;0.70;;
56790;SDS011;42658;46.072;14.474;2022-07-11T08:53:13;1.05;;;0.55;;
56790;SDS011;42658;46.072;14.474;2022-07-11T08:55:40;2.47;;;1.30;;
56790;SDS011;42658;46.072;14.474;2022-07-11T08:58:07;1.33;;;0.60;;
56790;SDS011;42658;46.072;14.474;2022-07-11T09:00:35;1.40;;;0.52;;
56790;SDS011;42658;46.072;14.474;2022-07-11T09:03:03;0.90;;;0.50;;
56790;SDS011;42658;46.072;14.474;2022-07-11T09:05:33;0.60;;;0.60;;
56790;SDS011;42658;46.072;14.474;2022-07-11T09:08:00;0.50;;;0.40;;
56790;SDS011;42658;46.072;14.474;2022-07-11T09:10:27;0.40;;;0.40;;
56790;SDS011;42658;46.072;14.474;2022-07-11T09:13:13;1.55;;;0.45;;
56790;SDS011;42658;46.072;14.474;2022-07-11T09:15:42;1.00;;;0.60;;
56790;SDS011;42658;46.072;14.474;2022-07-11T09:18:30;1.05;;;0.47;;
56790;SDS011;42658;46.072;14.474;2022-07-11T09:20:59;0.77;;;0.50;;
56790;SDS011;42658;46.072;14.474;2022-07-11T09:24:22;1.13;;;0.50;;
56790;SDS011;42658;46.072;14.474;2022-07-11T09:27:12;0.52;;;0.38;;
56790;SDS011;42658;46.072;14.474;2022-07-11T09:29:39;1.23;;;0.50;;
56790;SDS011;42658;46.072;14.474;2022-07-11T09:32:06;1.63;;;0.50;;
56790;SDS011;42658;46.072;14.474;2022-07-11T09:34:33;0.40;;;0.30;;
56790;SDS011;42658;46.072;14.474;2022-07-11T09:37:03;2.08;;;0.60;;
56790;SDS011;42658;46.072;14.474;2022-07-11T09:39:30;1.10;;;0.40;;
56790;SDS011;42658;46.072;14.474;2022-07-11T09:41:57;0.55;;;0.50;;
56790;SDS011;42658;46.072;14.474;2022-07-11T09:44:28;1.25;;;0.40;;
56790;SDS011;42658;46.072;14.474;2022-07-11T09:46:57;1.33;;;0.47;;
56790;SDS011;42658;46.072;14.474;2022-07-11T09:57:30;0.77;;;0.40;;
56790;SDS011;42658;46.072;14.474;2022-07-11T10:00:07;0.98;;;0.45;;
56790;SDS011;42658;46.072;14.474;2022-07-11T10:02:40;1.30;;;0.40;;
56790;SDS011;42658;46.072;14.474;2022-07-11T10:05:07;0.77;;;0.40;;
56790;SDS011;42658;46.072;14.474;2022-07-11T10:07:35;1.05;;;0.40;;
56790;SDS011;42658;46.072;14.474;2022-07-11T10:10:02;0.93;;;0.47;;
56790;SDS011;42658;46.072;14.474;2022-07-11T10:12:32;0.75;;;0.50;;
56790;SDS011;42658;46.072;14.474;2022-07-11T10:15:03;1.05;;;0.47;;
56790;SDS011;42658;46.072;14.474;2022-07-11T10:17:39;0.73;;;0.30;;
56790;SDS011;42658;46.072;14.474;2022-07-11T10:20:08;0.80;;;0.40;;
56790;SDS011;42658;46.072;14.474;2022-07-11T10:25:56;0.75;;;0.50;;
56790;SDS011;42658;46.072;14.474;2022-07-11T10:28:35;0.52;;;0.40;;
56790;SDS011;42658;46.072;14.474;2022-07-11T10:31:19;0.75;;;0.40;;
56790;SDS011;42658;46.072;14.474;2022-07-11T10:36:30;1.13;;;0.40;;
56790;SDS011;42658;46.072;14.474;2022-07-11T10:41:45;0.90;;;0.40;;
56790;SDS011;42658;46.072;14.474;2022-07-11T10:44:11;1.05;;;0.45;;
56790;SDS011;42658;46.072;14.474;2022-07-11T10:46:38;0.90;;;0.60;;
56790;SDS011;42658;46.072;14.474;2022-07-11T11:02:22;3.13;;;0.80;;
56790;SDS011;42658;46.072;14.474;2022-07-11T11:07:29;1.00;;;0.45;;
56790;SDS011;42658;46.072;14.474;2022-07-11T11:09:56;0.88;;;0.70;;
56790;SDS011;42658;46.072;14.474;2022-07-11T11:18:51;1.08;;;0.40;;
56790;SDS011;42658;46.072;14.474;2022-07-11T11:23:27;0.55;;;0.50;;
56790;SDS011;42658;46.072;14.474;2022-07-11T11:28:32;1.50;;;0.60;;
56790;SDS011;42658;46.072;14.474;2022-07-11T11:31:00;0.98;;;0.50;;
56790;SDS011;42658;46.072;14.474;2022-07-11T11:33:31;1.27;;;0.60;;
56790;SDS011;42658;46.072;14.474;2022-07-11T11:36:00;0.38;;;0.38;;
56790;SDS011;42658;46.072;14.474;2022-07-11T11:38:27;0.88;;;0.70;;
56790;SDS011;42658;46.072;14.474;2022-07-11T11:40:55;1.63;;;0.60;;
56790;SDS011;42658;46.072;14.474;2022-07-11T11:43:27;0.47;;;0.43;;
56790;SDS011;42658;46.072;14.474;2022-07-11T11:45:54;3.28;;;0.52;;
56790;SDS011;42658;46.072;14.474;2022-07-11T11:48:32;1.02;;;0.50;;
56790;SDS011;42658;46.072;14.474;2022-07-11T11:53:40;0.60;;;0.50;;
56790;SDS011;42658;46.072;14.474;2022-07-11T11:56:16;0.68;;;0.60;;
56790;SDS011;42658;46.072;14.474;2022-07-11T11:59:09;0.80;;;0.60;;
56790;SDS011;42658;46.072;14.474;2022-07-11T12:01:44;0.95;;;0.57;;
56790;SDS011;42658;46.072;14.474;2022-07-11T12:04:13;0.77;;;0.50;;
56790;SDS011;42658;46.072;14.474;2022-07-11T12:06:42;1.17;;;0.40;;
56790;SDS011;42658;46.072;14.474;2022-07-11T12:09:14;0.77;;;0.50;;
56790;SDS011;42658;46.072;14.474;2022-07-11T12:11:46;0.95;;;0.35;;
56790;SDS011;42658;46.072;14.474;2022-07-11T12:14:39;1.33;;;0.60;;
56790;SDS011;42658;46.072;14.474;2022-07-11T12:17:06;0.60;;;0.40;;
56790;SDS011;42658;46.072;14.474;2022-07-11T12:19:34;1.20;;;0.73;;
56790;SDS011;42658;46.072;14.474;2022-07-11T12:22:03;0.40;;;0.40;;
56790;SDS011;42658;46.072;14.474;2022-07-11T12:24:31;1.05;;;0.50;;
56790;SDS011;42658;46.072;14.474;2022-07-11T12:26:58;1.45;;;0.60;;
56790;SDS011;42658;46.072;14.474;2022-07-11T12:29:25;0.65;;;0.45;;
56790;SDS011;42658;46.072;14.474;2022-07-11T12:34:42;1.55;;;0.65;;
56790;SDS011;42658;46.072;14.474;2022-07-11T12:37:11;1.00;;;0.47;;
56790;SDS011;42658;46.072;14.474;2022-07-11T12:39:50;2.75;;;0.60;;
56790;SDS011;42658;46.072;14.474;2022-07-11T12:42:33;1.15;;;0.55;;
56790;SDS011;42658;46.072;14.474;2022-07-11T12:45:07;1.02;;;0.50;;
56790;SDS011;42658;46.072;14.474;2022-07-11T12:47:39;1.23;;;0.50;;
56790;SDS011;42658;46.072;14.474;2022-07-11T12:52:50;0.50;;;0.50;;
56790;SDS011;42658;46.072;14.474;2022-07-11T12:55:25;0.85;;;0.55;;
56790;SDS011;42658;46.072;14.474;2022-07-11T13:00:29;0.52;;;0.52;;
56790;SDS011;42658;46.072;14.474;2022-07-11T13:02:58;0.82;;;0.50;;
56790;SDS011;42658;46.072;14.474;2022-07-11T13:05:25;0.40;;;0.40;;
56790;SDS011;42658;46.072;14.474;2022-07-11T13:07:52;0.50;;;0.47;;
56790;SDS011;42658;46.072;14.474;2022-07-11T13:10:38;0.95;;;0.60;;
56790;SDS011;42658;46.072;14.474;2022-07-11T13:13:31;1.17;;;0.60;;
56790;SDS011;42658;46.072;14.474;2022-07-11T13:15:58;1.30;;;0.70;;
56790;SDS011;42658;46.072;14.474;2022-07-11T13:18:25;0.43;;;0.40;;
56790;SDS011;42658;46.072;14.474;2022-07-11T13:20:53;1.27;;;0.50;;
56790;SDS011;42658;46.072;14.474;2022-07-11T13:23:22;0.60;;;0.28;;
56790;SDS011;42658;46.072;14.474;2022-07-11T13:25:49;0.98;;;0.50;;
56790;SDS011;42658;46.072;14.474;2022-07-11T13:28:15;1.00;;;0.60;;
56790;SDS011;42658;46.072;14.474;2022-07-11T13:30:42;0.55;;;0.47;;
56790;SDS011;42658;46.072;14.474;2022-07-11T13:33:29;1.27;;;0.40;;
56790;SDS011;42658;46.072;14.474;2022-07-11T13:35:56;0.75;;;0.50;;
56790;SDS011;42658;46.072;14.474;2022-07-11T13:38:24;0.63;;;0.55;;
56790;SDS011;42658;46.072;14.474;2022-07-11T13:40:51;0.57;;;0.47;;
56790;SDS011;42658;46.072;14.474;2022-07-11T13:43:18;0.55;;;0.43;;
56790;SDS011;42658;46.072;14.474;2022-07-11T13:45:45;0.63;;;0.50;;
56790;SDS011;42658;46.072;14.474;2022-07-11T13:48:14;1.13;;;0.47;;
56790;SDS011;42658;46.072;14.474;2022-07-11T13:50:41;0.60;;;0.40;;
56790;SDS011;42658;46.072;14.474;2022-07-11T13:53:08;0.73;;;0.50;;
56790;SDS011;42658;46.072;14.474;2022-07-11T13:55:35;0.70;;;0.45;;
56790;SDS011;42658;46.072;14.474;2022-07-11T13:58:03;0.70;;;0.45;;
56790;SDS011;42658;46.072;14.474;2022-07-11T14:00:30;1.20;;;0.40;;
56790;SDS011;42658;46.072;14.474;2022-07-11T14:02:58;0.50;;;0.50;;
56790;SDS011;42658;46.072;14.474;2022-07-11T14:05:26;0.60;;;0.50;;
56790;SDS011;42658;46.072;14.474;2022-07-11T14:07:53;1.48;;;0.50;;
56790;SDS011;42658;46.072;14.474;2022-07-11T14:10:20;0.73;;;0.45;;
56790;SDS011;42658;46.072;14.474;2022-07-11T14:12:54;2.05;;;0.50;;
56790;SDS011;42658;46.072;14.474;2022-07-11T14:15:21;1.08;;;0.45;;
56790;SDS011;42658;46.072;14.474;2022-07-11T14:17:48;1.55;;;0.70;;
56790;SDS011;42658;46.072;14.474;2022-07-11T14:20:15;4.63;;;0.88;;
56790;SDS011;42658;46.072;14.474;2022-07-11T14:22:42;1.55;;;0.60;;
56790;SDS011;42658;46.072;14.474;2022-07-11T14:25:09;3.45;;;0.60;;
56790;SDS011;42658;46.072;14.474;2022-07-11T14:27:36;3.72;;;0.80;;
56790;SDS011;42658;46.072;14.474;2022-07-11T14:30:06;2.78;;;0.70;;
56790;SDS011;42658;46.072;14.474;2022-07-11T14:32:34;4.05;;;0.57;;
56790;SDS011;42658;46.072;14.474;2022-07-11T14:35:01;1.98;;;0.57;;
56790;SDS011;42658;46.072;14.474;2022-07-11T14:37:28;1.63;;;0.57;;
56790;SDS011;42658;46.072;14.474;2022-07-11T14:39:55;3.10;;;0.60;;
56790;SDS011;42658;46.072;14.474;2022-07-11T14:42:22;3.00;;;0.57;;
56790;SDS011;42658;46.072;14.474;2022-07-11T14:45:07;4.82;;;0.73;;
56790;SDS011;42658;46.072;14.474;2022-07-11T14:47:34;3.60;;;0.80;;
56790;SDS011;42658;46.072;14.474;2022-07-11T14:50:02;3.20;;;0.60;;
56790;SDS011;42658;46.072;14.474;2022-07-11T14:52:30;2.08;;;0.68;;
56790;SDS011;42658;46.072;14.474;2022-07-11T14:54:57;1.13;;;0.38;;
56790;SDS011;42658;46.072;14.474;2022-07-11T14:57:25;1.25;;;0.60;;
56790;SDS011;42658;46.072;14.474;2022-07-11T14:59:52;4.07;;;0.65;;
56790;SDS011;42658;46.072;14.474;2022-07-11T15:02:20;1.67;;;0.60;;
56790;SDS011;42658;46.072;14.474;2022-07-11T15:05:06;2.15;;;0.55;;
56790;SDS011;42658;46.072;14.474;2022-07-11T15:07:33;4.22;;;0.93;;
56790;SDS011;42658;46.072;14.474;2022-07-11T15:10:19;2.33;;;0.80;;
56790;SDS011;42658;46.072;14.474;2022-07-11T15:13:13;4.05;;;1.00;;
56790;SDS011;42658;46.072;14.474;2022-07-11T15:15:40;4.22;;;0.80;;
56790;SDS011;42658;46.072;14.474;2022-07-11T15:18:07;3.53;;;0.60;;
56790;SDS011;42658;46.072;14.474;2022-07-11T15:20:34;2.53;;;0.63;;
56790;SDS011;42658;46.072;14.474;2022-07-11T15:23:01;3.13;;;0.73;;
56790;SDS011;42658;46.072;14.474;2022-07-11T15:25:28;2.25;;;0.60;;
56790;SDS011;42658;46.072;14.474;2022-07-11T15:27:55;1.42;;;0.60;;
56790;SDS011;42658;46.072;14.474;2022-07-11T15:30:22;1.15;;;0.90;;
56790;SDS011;42658;46.072;14.474;2022-07-11T15:32:49;4.25;;;0.68;;
56790;SDS011;42658;46.072;14.474;2022-07-11T15:35:16;3.33;;;0.95;;
56790;SDS011;42658;46.072;14.474;2022-07-11T15:37:43;3.72;;;0.77;;
56790;SDS011;42658;46.072;14.474;2022-07-11T15:40:10;2.88;;;0.65;;
56790;SDS011;42658;46.072;14.474;2022-07-11T15:42:38;2.58;;;0.73;;
56790;SDS011;42658;46.072;14.474;2022-07-11T15:45:06;3.55;;;0.85;;
56790;SDS011;42658;46.072;14.474;2022-07-11T15:47:37;2.33;;;0.80;;
56790;SDS011;42658;46.072;14.474;2022-07-11T15:50:05;3.80;;;0.80;;